createdAt,value
2019-04-16T00:02:09.719Z,63.28
2019-04-16T00:04:36.994Z,63.29
2019-04-16T00:07:04.280Z,63.29
2019-04-16T00:09:31.340Z,63.19
2019-04-16T00:11:58.719Z,63.14
2019-04-16T00:14:25.789Z,63.17
2019-04-16T00:16:53.119Z,63.40
2019-04-16T00:19:20.439Z,63.30
2019-04-16T00:21:47.488Z,63.50
2019-04-16T00:24:18.192Z,63.60
2019-04-16T00:26:43.611Z,63.97
2019-04-16T00:29:11.010Z,63.93
2019-04-16T00:31:38.306Z,64.34
2019-04-16T00:34:05.632Z,64.67
2019-04-16T00:36:32.723Z,65.23
2019-04-16T00:39:00.119Z,65.36
2019-04-16T00:41:27.577Z,64.86
2019-04-16T00:43:54.947Z,64.87
2019-04-16T00:46:22.286Z,64.42
2019-04-16T00:48:49.386Z,64.06
2019-04-16T00:51:16.444Z,64.07
2019-04-16T00:53:43.490Z,64.49
2019-04-16T00:56:13.415Z,64.55
2019-04-16T00:58:40.006Z,64.71
2019-04-16T01:01:07.065Z,64.91
2019-04-16T01:03:34.404Z,65.12
2019-04-16T01:06:01.478Z,65.56
2019-04-16T01:08:28.509Z,65.66
2019-04-16T01:10:55.563Z,66.02
2019-04-16T01:13:24.511Z,66.46
2019-04-16T01:15:52.107Z,66.67
2019-04-16T01:18:19.159Z,66.73
2019-04-16T01:20:46.508Z,66.82
2019-04-16T01:23:17.549Z,66.87
2019-04-16T01:25:42.937Z,67.06
2019-04-16T01:28:10.072Z,66.85
2019-04-16T01:30:37.245Z,66.66
2019-04-16T01:33:04.249Z,66.62
2019-04-16T01:35:31.306Z,66.48
2019-04-16T01:37:59.608Z,66.57
2019-04-16T01:40:26.674Z,66.60
2019-04-16T01:42:54.713Z,66.66
2019-04-16T01:45:22.596Z,66.53
2019-04-16T01:47:49.951Z,66.84
2019-04-16T01:50:17.304Z,66.84
2019-04-16T01:52:47.347Z,66.99
2019-04-16T01:55:25.483Z,67.03
2019-04-16T01:57:49.825Z,67.11
2019-04-16T02:00:16.868Z,66.96
2019-04-16T02:02:46.338Z,66.87
2019-04-16T02:05:12.906Z,67.02
2019-04-16T02:07:40.261Z,67.36
2019-04-16T02:10:08.075Z,67.60
2019-04-16T02:12:35.487Z,67.78
2019-04-16T02:15:02.840Z,67.99
2019-04-16T02:17:31.216Z,68.00
2019-04-16T02:19:58.495Z,67.78
2019-04-16T02:22:25.824Z,67.75
2019-04-16T02:24:53.138Z,67.73
2019-04-16T02:27:20.191Z,68.00
2019-04-16T02:29:47.481Z,68.44
2019-04-16T02:32:14.538Z,68.74
2019-04-16T02:34:41.841Z,68.75
2019-04-16T02:37:09.119Z,68.95
2019-04-16T02:39:47.751Z,69.06
2019-04-16T02:42:05.163Z,69.21
2019-04-16T02:44:32.449Z,69.66
2019-04-16T02:47:05.375Z,69.43
2019-04-16T02:49:28.247Z,69.23
2019-04-16T02:51:55.298Z,69.26
2019-04-16T02:54:22.587Z,69.39
2019-04-16T02:56:52.080Z,69.66
2019-04-16T02:59:18.630Z,69.85
2019-04-16T03:01:45.670Z,69.82
2019-04-16T03:04:12.969Z,69.91
2019-04-16T03:06:40.009Z,69.86
2019-04-16T03:09:09.187Z,70.03
2019-04-16T03:11:36.057Z,70.23
2019-04-16T03:14:03.351Z,70.04
2019-04-16T03:16:30.390Z,69.91
2019-04-16T03:18:57.683Z,69.78
2019-04-16T03:21:27.411Z,69.73
2019-04-16T03:23:53.735Z,69.60
2019-04-16T03:26:21.781Z,69.60
2019-04-16T03:28:48.844Z,69.55
2019-04-16T03:31:22.509Z,69.54
2019-04-16T03:33:50.231Z,69.34
2019-04-16T03:36:14.855Z,69.20
2019-04-16T03:38:42.258Z,69.07
2019-04-16T03:41:09.276Z,69.15
2019-04-16T03:43:36.328Z,69.05
2019-04-16T03:46:03.368Z,68.98
2019-04-16T03:48:30.729Z,68.78
2019-04-16T03:51:00.551Z,68.88
2019-04-16T03:53:26.893Z,68.76
2019-04-16T03:55:54.600Z,68.73
2019-04-16T03:58:23.340Z,68.61
2019-04-16T04:00:50.384Z,68.69
2019-04-16T04:03:17.743Z,68.67
2019-04-16T04:05:44.784Z,68.90
2019-04-16T04:08:16.099Z,68.90
2019-04-16T04:10:41.226Z,68.93
2019-04-16T04:13:08.287Z,68.93
2019-04-16T04:15:35.626Z,69.15
2019-04-16T04:18:02.670Z,69.26
2019-04-16T04:20:29.736Z,69.22
2019-04-16T04:22:57.856Z,68.93
2019-04-16T04:25:25.029Z,68.73
2019-04-16T04:27:52.409Z,68.52
2019-04-16T04:30:19.756Z,68.49
2019-04-16T04:32:47.721Z,68.70
2019-04-16T04:35:20.070Z,68.60
2019-04-16T04:37:43.994Z,68.53
2019-04-16T04:40:12.786Z,67.71
2019-04-16T04:42:40.088Z,66.42
2019-04-16T04:45:09.043Z,64.98
2019-04-16T04:47:36.186Z,63.40
2019-04-16T04:50:04.379Z,61.96
2019-04-16T04:52:31.439Z,59.83
2019-04-16T04:54:58.749Z,57.90
2019-04-16T04:57:28.385Z,56.69
2019-04-16T04:59:54.552Z,54.67
2019-04-16T05:02:21.947Z,52.73
2019-04-16T05:04:49.607Z,49.84
2019-04-16T05:07:18.022Z,48.57
2019-04-16T05:09:45.080Z,45.12
2019-04-16T05:12:12.122Z,43.82
2019-04-16T05:14:39.178Z,40.39
2019-04-16T05:17:07.606Z,40.13
2019-04-16T05:19:34.787Z,38.27
2019-04-16T05:22:02.205Z,36.11
2019-04-16T05:24:30.009Z,35.47
2019-04-16T05:26:57.323Z,34.95
2019-04-16T05:29:24.373Z,34.52
2019-04-16T05:31:51.516Z,33.50
2019-04-16T05:34:18.878Z,33.09
2019-04-16T05:36:47.858Z,31.72
2019-04-16T05:39:15.450Z,31.35
2019-04-16T05:41:42.787Z,30.54
2019-04-16T05:44:09.833Z,30.88
2019-04-16T05:46:38.334Z,31.82
2019-04-16T05:49:05.530Z,32.24
2019-04-16T05:51:32.853Z,31.56
2019-04-16T05:53:59.892Z,31.38
2019-04-16T05:56:27.248Z,30.21
2019-04-16T05:58:54.289Z,29.94
2019-04-16T06:01:22.680Z,30.40
2019-04-16T06:03:52.819Z,30.68
2019-04-16T06:06:18.788Z,30.12
2019-04-16T06:08:46.144Z,29.71
2019-04-16T06:11:27.667Z,29.95
2019-04-16T06:13:44.498Z,30.50
2019-04-16T06:16:11.372Z,30.94
2019-04-16T06:18:38.743Z,31.29
2019-04-16T06:21:06.043Z,31.12
2019-04-16T06:23:33.162Z,31.19
2019-04-16T06:26:00.481Z,31.12
2019-04-16T06:28:27.851Z,32.41
2019-04-16T06:30:55.215Z,32.84
2019-04-16T06:33:22.568Z,32.03
2019-04-16T06:35:49.920Z,32.80
2019-04-16T06:38:17.503Z,31.56
2019-04-16T06:40:44.906Z,31.63
2019-04-16T06:43:12.312Z,31.60
2019-04-16T06:45:39.403Z,31.95
2019-04-16T06:48:06.700Z,31.12
2019-04-16T06:50:39.658Z,31.04
2019-04-16T06:53:02.505Z,31.18
2019-04-16T06:55:29.550Z,30.91
2019-04-16T06:57:57.654Z,30.56
2019-04-16T07:00:26.036Z,29.83
2019-04-16T07:03:02.172Z,29.22
2019-04-16T07:05:22.228Z,28.37
2019-04-16T07:07:49.541Z,25.70
2019-04-16T07:10:16.585Z,24.82
2019-04-16T07:12:43.678Z,23.47
2019-04-16T07:15:11.010Z,23.84
2019-04-16T07:17:40.513Z,22.59
2019-04-16T07:20:06.880Z,21.64
2019-04-16T07:22:34.489Z,22.23
2019-04-16T07:25:04.582Z,21.70
2019-04-16T07:27:34.266Z,21.66
2019-04-16T07:30:05.162Z,21.82
2019-04-16T07:32:30.046Z,22.56
2019-04-16T07:34:57.104Z,22.09
2019-04-16T07:37:24.447Z,22.63
2019-04-16T07:39:51.800Z,23.87
2019-04-16T07:43:47.021Z,23.60
2019-04-16T07:44:47.876Z,25.80
2019-04-16T07:47:19.737Z,26.51
2019-04-16T07:49:44.195Z,28.18
2019-04-16T07:52:12.293Z,27.47
2019-04-16T07:54:39.824Z,28.61
2019-04-16T07:57:07.180Z,28.11
2019-04-16T07:59:34.313Z,28.75
2019-04-16T08:02:02.605Z,28.68
2019-04-16T08:04:35.387Z,30.14
2019-04-16T08:06:59.003Z,28.93
2019-04-16T08:09:29.942Z,29.39
2019-04-16T08:11:56.060Z,29.82
2019-04-16T08:14:23.369Z,30.77
2019-04-16T08:16:50.424Z,30.73
2019-04-16T08:19:17.784Z,32.13
2019-04-16T08:21:45.132Z,34.18
2019-04-16T08:24:12.510Z,35.16
2019-04-16T08:26:41.649Z,34.17
2019-04-16T08:29:08.655Z,32.84
2019-04-16T08:31:36.009Z,32.99
2019-04-16T08:34:03.071Z,32.96
2019-04-16T08:36:30.115Z,33.64
2019-04-16T08:38:57.720Z,32.42
2019-04-16T08:41:25.101Z,30.59
2019-04-16T08:43:52.480Z,30.81
2019-04-16T08:46:19.806Z,29.86
2019-04-16T08:48:49.324Z,29.30
2019-04-16T08:51:29.376Z,28.83
2019-04-16T08:53:46.712Z,29.35
2019-04-16T08:56:13.970Z,29.00
2019-04-16T08:58:41.278Z,28.38
2019-04-16T09:01:08.571Z,28.25
2019-04-16T09:03:35.904Z,31.14
2019-04-16T09:06:04.307Z,28.82
2019-04-16T09:08:32.071Z,29.72
2019-04-16T09:11:00.246Z,29.67
2019-04-16T09:13:29.232Z,29.68
2019-04-16T09:15:56.593Z,30.51
2019-04-16T09:18:23.657Z,31.22
2019-04-16T09:20:50.699Z,30.27
2019-04-16T09:23:18.021Z,29.67
2019-04-16T09:25:46.551Z,29.87
2019-04-16T09:28:25.282Z,30.00
2019-04-16T09:30:42.801Z,29.83
2019-04-16T09:33:09.866Z,29.19
2019-04-16T09:35:37.277Z,28.55
2019-04-16T09:38:05.755Z,28.19
2019-04-16T09:40:33.106Z,29.76
2019-04-16T09:43:00.332Z,28.82
2019-04-16T09:45:27.403Z,29.21
2019-04-16T09:47:54.449Z,28.25
2019-04-16T09:50:21.795Z,29.04
2019-04-16T09:52:49.156Z,29.23
2019-04-16T09:55:18.874Z,30.03
2019-04-16T09:57:45.604Z,29.71
2019-04-16T10:00:13.014Z,30.89
2019-04-16T10:02:40.519Z,29.93
2019-04-16T10:05:07.896Z,30.19
2019-04-16T10:07:39.815Z,30.30
2019-04-16T10:10:04.019Z,29.29
2019-04-16T10:12:31.391Z,29.87
2019-04-16T10:14:59.516Z,29.09
2019-04-16T10:17:26.916Z,28.83
2019-04-16T10:19:54.297Z,29.33
2019-04-16T10:22:21.632Z,30.44
2019-04-16T10:24:48.701Z,27.91
2019-04-16T10:27:15.759Z,27.91
2019-04-16T10:29:43.082Z,30.88
2019-04-16T10:32:10.174Z,28.93
2019-04-16T10:34:37.258Z,29.06
2019-04-16T10:37:04.632Z,29.75
2019-04-16T10:39:31.760Z,29.72
2019-04-16T10:41:59.130Z,28.10
2019-04-16T10:44:26.518Z,27.29
2019-04-16T10:46:53.542Z,26.32
2019-04-16T10:49:20.617Z,26.60
2019-04-16T10:51:47.652Z,26.43
2019-04-16T10:54:15.081Z,26.85
2019-04-16T10:56:42.538Z,26.80
2019-04-16T10:59:09.587Z,27.24
2019-04-16T11:01:36.675Z,28.27
2019-04-16T11:04:04.854Z,27.02
2019-04-16T11:06:32.711Z,25.93
2019-04-16T11:08:59.733Z,25.14
2019-04-16T11:11:26.887Z,26.21
2019-04-16T11:14:00.015Z,26.25
2019-04-16T11:16:22.925Z,26.53
2019-04-16T11:18:50.265Z,26.37
2019-04-16T11:21:17.419Z,27.01
2019-04-16T11:23:44.830Z,26.85
2019-04-16T11:26:12.249Z,27.04
2019-04-16T11:28:39.301Z,27.30
2019-04-16T11:31:06.389Z,27.89
2019-04-16T11:33:33.414Z,29.57
2019-04-16T11:36:00.860Z,29.26
2019-04-16T11:38:28.211Z,28.14
2019-04-16T11:40:55.570Z,27.23
2019-04-16T11:43:22.928Z,26.16
2019-04-16T11:45:50.260Z,25.72
2019-04-16T11:48:17.607Z,27.89
2019-04-16T11:50:46.011Z,26.15
2019-04-16T11:53:13.034Z,25.66
2019-04-16T11:55:40.341Z,25.01
2019-04-16T11:58:07.369Z,24.25
2019-04-16T12:00:34.705Z,23.97
2019-04-16T12:03:01.836Z,25.20
2019-04-16T12:05:29.214Z,24.48
2019-04-16T12:07:56.281Z,26.41
2019-04-16T12:10:23.340Z,26.91
2019-04-16T12:12:50.659Z,27.32
2019-04-16T12:15:18.021Z,26.24
2019-04-16T12:17:45.116Z,25.21
2019-04-16T12:20:12.304Z,24.12
2019-04-16T12:22:39.755Z,26.15
2019-04-16T12:25:07.124Z,24.51
2019-04-16T12:27:34.173Z,23.66
2019-04-16T12:30:01.865Z,22.63
2019-04-16T12:32:29.709Z,22.45
2019-04-16T12:34:56.759Z,22.72
2019-04-16T12:37:24.092Z,22.71
2019-04-16T12:39:51.468Z,22.05
2019-04-16T12:45:09.157Z,24.82
2019-04-16T12:47:36.924Z,27.29
2019-04-16T12:50:03.975Z,27.58
2019-04-16T12:52:31.443Z,25.40
2019-04-16T12:54:59.702Z,25.14
2019-04-16T12:57:26.864Z,26.30
2019-04-16T12:59:54.987Z,27.92
2019-04-16T13:02:23.042Z,29.35
2019-04-16T13:04:50.542Z,29.70
2019-04-16T13:07:17.579Z,30.52
2019-04-16T13:09:44.916Z,30.88
2019-04-16T13:12:11.986Z,30.65
2019-04-16T13:14:39.307Z,29.97
2019-04-16T13:17:06.369Z,30.62
2019-04-16T13:19:33.418Z,29.25
2019-04-16T13:22:01.024Z,29.62
2019-04-16T13:24:28.544Z,30.45
2019-04-16T13:26:55.876Z,29.07
2019-04-16T13:29:29.021Z,28.55
2019-04-16T13:31:51.973Z,30.07
2019-04-16T13:34:19.469Z,31.09
2019-04-16T13:36:51.415Z,30.04
2019-04-16T13:39:17.683Z,30.31
2019-04-16T13:41:45.021Z,31.22
2019-04-16T13:44:12.075Z,31.11
2019-04-16T13:46:39.427Z,31.50
2019-04-16T13:49:06.850Z,32.06
2019-04-16T13:51:34.124Z,30.82
2019-04-16T13:54:02.020Z,30.24
2019-04-16T13:56:29.316Z,29.33
2019-04-16T13:58:59.033Z,28.47
2019-04-16T14:01:25.816Z,29.36
2019-04-16T14:03:56.097Z,29.34
2019-04-16T14:06:21.916Z,29.27
2019-04-16T14:08:49.082Z,29.72
2019-04-16T14:11:19.365Z,29.54
2019-04-16T14:13:46.441Z,28.86
2019-04-16T14:16:14.297Z,28.65
2019-04-16T14:18:41.370Z,29.81
2019-04-16T14:21:08.744Z,29.53
2019-04-16T14:23:35.807Z,28.32
2019-04-16T14:26:02.857Z,28.15
2019-04-16T14:28:34.264Z,29.36
2019-04-16T14:30:58.941Z,29.39
2019-04-16T14:33:26.339Z,29.40
2019-04-16T14:35:53.712Z,30.31
2019-04-16T14:38:20.757Z,29.17
2019-04-16T14:40:48.118Z,29.71
2019-04-16T14:43:15.171Z,30.17
2019-04-16T14:45:56.765Z,31.17
2019-04-16T14:48:11.249Z,31.72
2019-04-16T14:50:38.645Z,31.93
2019-04-16T14:53:06.006Z,32.19
2019-04-16T14:55:33.357Z,32.94
2019-04-16T14:58:00.406Z,32.60
2019-04-16T15:00:27.777Z,33.98
2019-04-16T15:02:55.117Z,34.40
2019-04-16T15:05:22.469Z,34.46
2019-04-16T15:07:49.778Z,34.84
2019-04-16T15:10:17.185Z,35.69
2019-04-16T15:12:44.233Z,35.92
2019-04-16T15:15:11.722Z,36.44
2019-04-16T15:17:40.575Z,36.98
2019-04-16T15:20:07.642Z,36.87
2019-04-16T15:22:34.688Z,36.84
2019-04-16T15:25:01.759Z,36.99
2019-04-16T15:27:31.627Z,37.30
2019-04-16T15:29:57.850Z,37.82
2019-04-16T15:32:25.527Z,37.64
2019-04-16T15:34:52.900Z,37.74
2019-04-16T15:37:22.752Z,37.36
2019-04-16T15:39:49.330Z,37.46
2019-04-16T15:42:17.742Z,37.42
2019-04-16T15:44:45.801Z,37.73
2019-04-16T15:47:14.036Z,37.69
2019-04-16T15:49:41.946Z,37.93
2019-04-16T15:52:10.385Z,37.51
2019-04-16T15:54:37.986Z,37.72
2019-04-16T15:57:08.017Z,37.82
2019-04-16T15:59:35.358Z,38.03
2019-04-16T16:02:02.665Z,38.29
2019-04-16T16:04:31.074Z,38.52
2019-04-16T16:06:58.429Z,38.63
2019-04-16T16:09:25.785Z,38.27
2019-04-16T16:11:52.851Z,38.26
2019-04-16T16:14:19.895Z,38.57
2019-04-16T16:16:47.757Z,39.10
2019-04-16T16:19:16.065Z,39.09
2019-04-16T16:21:43.482Z,39.42
2019-04-16T16:24:11.862Z,39.24
2019-04-16T16:26:39.218Z,39.02
2019-04-16T16:29:06.266Z,39.23
2019-04-16T16:31:35.587Z,39.15
2019-04-16T16:34:02.061Z,40.06
2019-04-16T16:36:29.190Z,39.95
2019-04-16T16:38:56.502Z,40.15
2019-04-16T16:41:23.566Z,39.90
2019-04-16T16:43:50.612Z,39.86
2019-04-16T16:46:17.956Z,40.87
2019-04-16T16:48:45.310Z,41.25
2019-04-16T16:51:14.834Z,42.49
2019-04-16T16:53:41.454Z,41.72
2019-04-16T16:56:08.816Z,41.74
2019-04-16T16:58:35.856Z,41.93
2019-04-16T17:01:03.248Z,42.24
2019-04-16T17:03:30.298Z,43.81
2019-04-16T17:05:57.835Z,44.44
2019-04-16T17:08:27.069Z,44.60
2019-04-16T17:10:54.066Z,46.09
2019-04-16T17:13:21.328Z,47.93
2019-04-16T17:15:48.791Z,50.08
2019-04-16T17:18:15.857Z,51.20
2019-04-16T17:20:43.178Z,52.05
2019-04-16T17:23:16.502Z,52.29
2019-04-16T17:25:40.565Z,52.85
2019-04-16T17:28:07.867Z,53.60
2019-04-16T17:30:35.158Z,54.10
2019-04-16T17:33:02.621Z,54.03
2019-04-16T17:35:29.993Z,54.93
2019-04-16T17:38:01.536Z,53.86
2019-04-16T17:40:26.112Z,53.59
2019-04-16T17:42:53.326Z,53.77
2019-04-16T17:45:20.823Z,54.08
2019-04-16T17:47:48.194Z,54.13
2019-04-16T17:50:15.552Z,54.74
2019-04-16T17:52:42.892Z,54.67
2019-04-16T17:55:10.187Z,55.08
2019-04-16T17:57:37.240Z,55.24
2019-04-16T18:00:05.653Z,55.11
2019-04-16T18:02:33.640Z,56.08
2019-04-16T18:05:00.685Z,56.08
2019-04-16T18:07:29.169Z,56.23
2019-04-16T18:10:00.416Z,55.38
2019-04-16T18:12:25.628Z,55.12
2019-04-16T18:14:52.998Z,54.71
2019-04-16T18:17:20.092Z,54.92
2019-04-16T18:19:48.509Z,55.50
2019-04-16T18:22:15.997Z,55.21
2019-04-16T18:24:43.094Z,55.20
2019-04-16T18:27:10.474Z,55.17
2019-04-16T18:29:37.825Z,55.23
2019-04-16T18:32:05.018Z,55.30
2019-04-16T18:34:33.191Z,55.23
2019-04-16T18:37:00.231Z,55.60
2019-04-16T18:39:27.613Z,55.30
2019-04-16T18:41:54.909Z,54.91
2019-04-16T18:44:22.047Z,55.16
2019-04-16T18:46:49.426Z,55.16
2019-04-16T18:49:17.404Z,55.25
2019-04-16T18:51:45.558Z,55.29
2019-04-16T18:54:15.020Z,55.05
2019-04-16T18:56:41.942Z,54.67
2019-04-16T18:59:09.237Z,54.31
2019-04-16T19:01:36.280Z,54.11
2019-04-16T19:04:03.689Z,53.87
2019-04-16T19:06:32.065Z,53.62
2019-04-16T19:08:59.124Z,53.57
2019-04-16T19:11:26.169Z,52.52
2019-04-16T19:13:53.701Z,51.63
2019-04-16T19:16:21.165Z,51.67
2019-04-16T19:18:48.280Z,52.17
2019-04-16T19:21:15.318Z,52.74
2019-04-16T19:23:43.529Z,53.33
2019-04-16T19:26:10.884Z,54.33
2019-04-16T19:28:39.627Z,55.04
2019-04-16T19:31:07.335Z,55.57
2019-04-16T19:33:38.102Z,55.60
2019-04-16T19:36:03.143Z,55.32
2019-04-16T19:38:30.626Z,55.41
2019-04-16T19:40:58.007Z,55.46
2019-04-16T19:43:28.024Z,55.50
2019-04-16T19:45:53.794Z,55.71
2019-04-16T19:48:34.740Z,55.83
2019-04-16T19:50:49.928Z,55.70
2019-04-16T19:53:16.973Z,55.51
2019-04-16T19:55:45.814Z,55.77
2019-04-16T19:58:12.779Z,55.24
2019-04-16T20:00:40.207Z,55.53
2019-04-16T20:03:07.247Z,55.34
2019-04-16T20:05:34.828Z,55.36
2019-04-16T20:08:02.468Z,55.87
2019-04-16T20:10:29.537Z,56.34
2019-04-16T20:12:59.200Z,56.86
2019-04-16T20:15:25.730Z,57.19
2019-04-16T20:17:53.201Z,57.29
2019-04-16T20:20:20.308Z,57.53
2019-04-16T20:22:47.651Z,57.84
2019-04-16T20:25:14.715Z,57.92
2019-04-16T20:27:41.739Z,58.38
2019-04-16T20:30:09.096Z,58.43
2019-04-16T20:32:36.538Z,58.71
2019-04-16T20:35:03.893Z,58.97
2019-04-16T20:37:38.418Z,59.14
2019-04-16T20:40:05.456Z,59.26
2019-04-16T20:42:32.594Z,59.13
2019-04-16T20:44:59.965Z,59.36
2019-04-16T20:47:27.103Z,59.34
2019-04-16T20:49:54.583Z,59.65
2019-04-16T20:52:21.936Z,59.67
2019-04-16T20:54:49.285Z,59.85
2019-04-16T20:57:16.346Z,59.83
2019-04-16T20:59:43.626Z,60.08
2019-04-16T21:02:10.940Z,60.30
2019-04-16T21:04:38.296Z,60.41
2019-04-16T21:07:05.653Z,61.09
2019-04-16T21:09:32.700Z,61.86
2019-04-16T21:11:59.760Z,62.44
2019-04-16T21:14:27.873Z,62.70
2019-04-16T21:16:54.933Z,63.32
2019-04-16T21:19:23.651Z,64.15
2019-04-16T21:21:55.081Z,64.27
2019-04-16T21:24:19.923Z,64.77
2019-04-16T21:26:50.990Z,65.09
2019-04-16T21:29:15.726Z,64.89
2019-04-16T21:31:43.150Z,64.97
2019-04-16T21:34:10.435Z,64.93
2019-04-16T21:36:37.973Z,65.18
2019-04-16T21:39:05.471Z,65.87
2019-04-16T21:41:34.483Z,65.80
2019-04-16T21:44:02.146Z,65.77
2019-04-16T21:46:29.582Z,66.08
2019-04-16T21:48:59.841Z,66.40
2019-04-16T21:51:25.685Z,66.72
2019-04-16T21:53:52.983Z,66.70
2019-04-16T21:56:20.335Z,66.91
2019-04-16T21:58:50.193Z,67.00
2019-04-16T22:01:17.497Z,67.45
2019-04-16T22:03:44.876Z,67.65
2019-04-16T22:06:11.927Z,67.71
2019-04-16T22:08:39.306Z,68.35
2019-04-16T22:11:08.583Z,68.27
2019-04-16T22:13:35.818Z,68.33
2019-04-16T22:16:03.167Z,68.61
2019-04-16T22:18:30.521Z,68.68
2019-04-16T22:20:57.877Z,68.81
2019-04-16T22:23:24.938Z,68.71
2019-04-16T22:25:52.281Z,69.11
2019-04-16T22:28:19.639Z,69.50
2019-04-16T22:30:51.230Z,69.55
2019-04-16T22:33:16.086Z,69.36
2019-04-16T22:35:43.441Z,69.23
2019-04-16T22:38:13.697Z,69.28
2019-04-16T22:40:39.239Z,69.28
2019-04-16T22:43:08.494Z,69.41
2019-04-16T22:45:36.700Z,69.66
2019-04-16T22:48:04.004Z,69.56
2019-04-16T22:50:31.049Z,69.48
2019-04-16T22:52:58.347Z,70.00
2019-04-16T22:55:25.801Z,69.86
2019-04-16T22:57:54.026Z,69.95
2019-04-16T23:00:21.073Z,69.92
2019-04-16T23:02:48.940Z,69.89
2019-04-16T23:05:16.353Z,70.12
2019-04-16T23:07:43.391Z,70.34
2019-04-16T23:10:10.528Z,70.59
2019-04-16T23:12:37.836Z,70.60
2019-04-16T23:15:05.224Z,70.67
2019-04-16T23:17:32.498Z,70.74
2019-04-16T23:19:59.554Z,70.67
2019-04-16T23:22:26.589Z,70.83
2019-04-16T23:24:55.338Z,70.95
2019-04-16T23:27:22.706Z,71.00
2019-04-16T23:29:50.066Z,71.06
2019-04-16T23:32:17.421Z,71.12
2019-04-16T23:34:44.724Z,71.15
2019-04-16T23:37:12.419Z,71.02
2019-04-16T23:39:39.827Z,71.07
2019-04-16T23:42:07.919Z,70.97
2019-04-16T23:44:35.339Z,70.95
2019-04-16T23:47:02.385Z,71.04
2019-04-16T23:49:29.727Z,70.99
2019-04-16T23:52:01.784Z,71.18
2019-04-16T23:54:25.848Z,71.15
2019-04-16T23:56:53.892Z,71.19
2019-04-16T23:59:21.175Z,71.51
